Terminal Aerodrome Forecast
Issued by NWS

Home | Current Version | Previous Version | Text Only | Print | Product List | Glossary On
Versions: 1 2 3 4 5 6 7 8 9 10 11 12 13 14 15 16 17 18 19 20 21 22 23 24 25 26 27 28 29 30 31 32 33 34 35 36 37 38 39 40 41 42 43 44 45 46 47 48 49
000
FTUS45 KVEF 172300
TAFLAS
TAF
KLAS 172320Z 1800/1824 17006KT P6SM SCT030 BKN060 BKN100
      TEMPO 1800/1804 BKN030
     FM181500 VRB04KT P6SM SCT060 BKN100
     FM182000 VRB04KT P6SM FEW060 SCT100=

USA.gov is the U.S. government's official web portal to all federal, state and local government web resources and services.